Time;durP1;ratioP1;P1;durP2;ratioP2;P2;SDS_P1;SDS_P2;PMS_P1;PMS_P2;Temp;Humidity;BMP_temperature;BMP_pressure;BME280_temperature;BME280_humidity;BME280_pressure;Samples;Min_cycle;Max_cycle;Signal;HPM_P1;HPM_P2
2021/07/25 00:00:40;;;;;;;;;4.00;3.00;;;;;23.03;60.27;100651.28;4979176;28;45496;-75
2021/07/25 00:03:06;;;;;;;;;2.50;2.50;;;;;23.03;59.96;100652.13;4967880;28;45600;-72
2021/07/25 00:05:32;;;;;;;;;2.25;2.25;;;;;23.02;60.20;100644.19;4960356;28;45526;-72
2021/07/25 00:07:57;;;;;;;;;2.25;2.25;;;;;23.03;59.62;100640.56;4960707;28;45244;-73
2021/07/25 00:10:22;;;;;;;;;3.00;3.00;;;;;23.02;59.08;100633.47;4963170;28;45532;-73
2021/07/25 00:12:48;;;;;;;;;2.25;2.25;;;;;23.00;58.91;100639.00;4962331;28;46915;-73
2021/07/25 00:15:13;;;;;;;;;2.25;2.25;;;;;22.98;58.51;100637.44;4973218;28;45188;-73
2021/07/25 00:17:39;;;;;;;;;1.75;1.75;;;;;22.95;58.47;100630.50;4969755;28;45508;-73
2021/07/25 00:20:05;;;;;;;;;2.00;1.50;;;;;22.92;58.34;100638.81;4978140;28;45373;-73
2021/07/25 00:22:30;;;;;;;;;2.00;2.00;;;;;22.93;59.08;100640.50;4969247;28;46236;-73
2021/07/25 00:27:34;;;;;;;;;2.00;2.00;;;;;22.91;58.73;100635.31;4962896;28;45370;-73
2021/07/25 00:30:00;;;;;;;;;3.25;3.25;;;;;22.91;58.51;100637.97;4963778;28;46921;-74
2021/07/25 00:32:25;;;;;;;;;3.75;2.50;;;;;22.92;58.49;100639.66;4963400;28;45615;-74
2021/07/25 00:34:52;;;;;;;;;2.00;2.00;;;;;22.95;58.44;100635.00;4963345;28;45258;-74
2021/07/25 00:37:17;;;;;;;;;1.00;1.00;;;;;22.92;58.58;100628.94;4963737;28;45163;-74
2021/07/25 00:39:43;;;;;;;;;4.00;2.00;;;;;22.93;58.78;100625.28;4956071;28;47045;-73
2021/07/25 00:42:08;;;;;;;;;1.75;1.75;;;;;22.92;58.52;100623.59;4963173;28;47230;-74
2021/07/25 00:44:34;;;;;;;;;1.00;1.00;;;;;22.92;58.35;100625.41;4971921;28;45404;-74
2021/07/25 00:47:01;;;;;;;;;1.50;1.50;;;;;22.92;58.46;100630.75;4963431;28;45362;-74
2021/07/25 00:49:28;;;;;;;;;2.00;2.00;;;;;22.92;58.29;100622.72;4963307;28;45450;-74
2021/07/25 00:51:54;;;;;;;;;0.75;0.75;;;;;22.90;58.67;100622.88;4963250;28;45350;-74
2021/07/25 00:54:21;;;;;;;;;2.00;2.00;;;;;22.89;58.36;100628.38;4967775;28;45275;-74
2021/07/25 00:56:47;;;;;;;;;1.50;1.00;;;;;22.86;58.78;100618.78;4982976;28;45300;-75
2021/07/25 00:59:12;;;;;;;;;1.75;1.00;;;;;22.84;58.02;100615.38;4967224;28;45206;-75
2021/07/25 01:01:38;;;;;;;;;1.00;1.00;;;;;22.82;58.42;100618.19;4969678;28;46493;-74
2021/07/25 01:04:32;;;;;;;;;2.50;2.25;;;;;22.83;58.28;100619.03;4981148;28;45250;-74
2021/07/25 01:07:12;;;;;;;;;1.50;1.00;;;;;22.81;58.67;100612.97;4981275;28;45255;-75
2021/07/25 01:10:07;;;;;;;;;2.50;2.00;;;;;22.80;59.04;100603.22;4968548;28;45286;-75
2021/07/25 01:12:40;;;;;;;;;4.00;2.00;;;;;22.78;58.88;100605.19;4974979;28;46255;-74
2021/07/25 01:15:07;;;;;;;;;2.00;2.00;;;;;22.78;58.88;100599.84;4982347;28;45366;-75
2021/07/25 01:17:34;;;;;;;;;1.75;1.75;;;;;22.79;58.73;100604.22;4983818;28;45641;-75
2021/07/25 01:20:08;;;;;;;;;2.00;2.00;;;;;22.80;58.69;100597.88;4985641;28;45247;-74
2021/07/25 01:22:37;;;;;;;;;2.50;2.50;;;;;22.78;58.52;100597.16;4995926;28;46403;-74
2021/07/25 01:25:05;;;;;;;;;5.00;3.00;;;;;22.80;58.08;100597.88;4984206;28;46418;-74
2021/07/25 01:27:45;;;;;;;;;2.00;2.00;;;;;22.80;58.56;100609.44;4986032;28;45333;-74
2021/07/25 01:30:15;;;;;;;;;3.00;2.00;;;;;22.80;57.97;100601.41;4981812;28;46543;-75
2021/07/25 01:32:42;;;;;;;;;2.00;2.00;;;;;22.77;59.01;100600.81;4985215;28;46483;-75
2021/07/25 01:35:10;;;;;;;;;2.00;2.00;;;;;22.79;59.05;100609.59;5001848;28;45429;-75
2021/07/25 01:37:36;;;;;;;;;3.00;3.00;;;;;22.79;58.13;100602.38;4975677;28;45265;-75
2021/07/25 01:40:11;;;;;;;;;2.00;2.00;;;;;22.80;58.95;100608.59;4983400;28;45527;-74
2021/07/25 01:42:36;;;;;;;;;2.00;2.00;;;;;22.76;58.23;100613.38;4982255;28;45692;-74
2021/07/25 01:45:03;;;;;;;;;1.50;1.50;;;;;22.71;59.17;100607.56;4981816;28;45237;-75
2021/07/25 01:47:29;;;;;;;;;2.00;1.00;;;;;22.68;59.31;100614.00;4982487;28;45720;-74
2021/07/25 01:49:55;;;;;;;;;3.00;3.00;;;;;22.67;58.67;100616.81;4984358;28;45318;-76
2021/07/25 01:52:20;;;;;;;;;3.50;1.00;;;;;22.65;58.89;100608.91;4981341;28;45603;-76
2021/07/25 01:54:45;;;;;;;;;3.00;3.00;;;;;22.67;58.97;100606.09;4989360;28;46562;-72
2021/07/25 01:57:11;;;;;;;;;3.00;3.00;;;;;22.67;58.76;100611.44;4982047;28;45310;-74
2021/07/25 01:59:36;;;;;;;;;1.50;1.50;;;;;22.68;58.97;100605.97;4990640;28;45451;-75
2021/07/25 02:02:01;;;;;;;;;2.50;2.00;;;;;22.66;58.90;100602.59;4980202;28;47485;-74
2021/07/25 02:04:27;;;;;;;;;2.00;2.00;;;;;22.67;58.93;100603.41;4980772;28;45307;-75
2021/07/25 02:06:52;;;;;;;;;2.00;2.00;;;;;22.65;59.08;100603.56;4982168;28;45317;-74
2021/07/25 02:09:18;;;;;;;;;2.25;2.25;;;;;22.66;58.60;100607.94;4980732;28;45500;-74
2021/07/25 02:11:43;;;;;;;;;4.00;2.25;;;;;22.63;58.64;100597.50;4997663;28;45339;-74
2021/07/25 02:14:11;;;;;;;;;3.00;3.00;;;;;22.64;58.59;100591.16;4970329;28;45333;-74
2021/07/25 02:16:36;;;;;;;;;2.50;2.00;;;;;22.64;58.83;100591.16;5001243;28;45222;-74
2021/07/25 02:19:02;;;;;;;;;2.00;2.00;;;;;22.66;59.01;100591.03;4991962;28;45543;-75
2021/07/25 02:21:28;;;;;;;;;4.00;4.00;;;;;22.66;59.04;100591.88;4981526;28;45263;-74
2021/07/25 02:23:53;;;;;;;;;1.25;1.25;;;;;22.64;59.13;100591.16;4981349;28;45401;-75
2021/07/25 02:26:19;;;;;;;;;2.50;2.50;;;;;22.65;58.81;100587.50;4981367;28;45219;-74
2021/07/25 02:28:44;;;;;;;;;2.00;1.00;;;;;22.67;58.54;100585.50;4981351;28;45317;-74
2021/07/25 02:31:09;;;;;;;;;2.50;2.50;;;;;22.66;59.18;100591.88;4980819;28;46300;-75
2021/07/25 02:33:34;;;;;;;;;2.00;2.00;;;;;22.64;59.21;100587.63;4981360;28;45282;-75
2021/07/25 02:36:00;;;;;;;;;3.75;1.25;;;;;22.62;59.07;100589.59;4981229;28;45393;-76
2021/07/25 02:38:25;;;;;;;;;3.00;1.75;;;;;22.62;58.91;100584.25;4984952;28;45477;-76
2021/07/25 02:40:50;;;;;;;;;2.50;2.00;;;;;22.63;59.63;100584.09;5000500;28;45314;-76
2021/07/25 02:43:16;;;;;;;;;3.75;3.00;;;;;22.63;59.03;100591.28;4997654;28;45492;-76
2021/07/25 02:45:41;;;;;;;;;4.50;4.50;;;;;22.60;59.01;100585.22;4989831;28;45987;-76
2021/07/25 02:48:06;;;;;;;;;4.00;2.00;;;;;22.60;59.81;100579.00;4980926;28;45532;-76
2021/07/25 02:50:32;;;;;;;;;4.00;2.50;;;;;22.61;59.88;100586.06;4979778;28;46319;-76
2021/07/25 02:52:57;;;;;;;;;2.50;2.00;;;;;22.60;59.09;100582.53;4980884;28;45292;-77
2021/07/25 02:55:22;;;;;;;;;3.50;2.00;;;;;22.60;59.82;100576.31;4994532;28;45475;-76
2021/07/25 02:57:48;;;;;;;;;2.25;2.25;;;;;22.59;60.16;100582.69;4996863;28;45547;-76
2021/07/25 03:00:13;;;;;;;;;2.75;2.75;;;;;22.56;59.42;100574.91;4964359;28;47750;-76
2021/07/25 03:02:39;;;;;;;;;2.50;2.00;;;;;22.59;59.61;100575.47;4998142;28;45305;-76
2021/07/25 03:05:05;;;;;;;;;3.50;3.50;;;;;22.62;59.68;100582.38;4981151;28;45250;-74
2021/07/25 03:07:31;;;;;;;;;2.75;2.00;;;;;22.64;59.70;100576.91;4980983;28;45512;-73
2021/07/25 03:09:56;;;;;;;;;2.50;2.50;;;;;22.65;60.00;100579.44;4980205;28;45593;-71
2021/07/25 03:12:21;;;;;;;;;2.00;2.00;;;;;22.60;60.31;100573.66;4987723;28;45274;-73
2021/07/25 03:14:47;;;;;;;;;6.00;3.75;;;;;22.53;60.20;100577.84;4994439;28;45469;-72
2021/07/25 03:17:12;;;;;;;;;2.00;2.00;;;;;22.47;60.05;100574.72;4980474;28;45511;-74
2021/07/25 03:19:37;;;;;;;;;2.00;1.00;;;;;22.47;60.42;100572.03;4980608;28;46104;-74
2021/07/25 03:22:04;;;;;;;;;3.25;3.25;;;;;22.44;60.70;100566.97;4984946;28;45285;-74
2021/07/25 03:24:31;;;;;;;;;4.00;2.75;;;;;22.45;59.95;100568.66;4982625;28;45378;-73
2021/07/25 03:26:56;;;;;;;;;3.75;2.75;;;;;22.45;60.59;100574.00;4963975;28;45566;-71
2021/07/25 03:29:21;;;;;;;;;3.75;2.25;;;;;22.46;60.51;100574.84;4983906;28;46304;-73
2021/07/25 03:31:47;;;;;;;;;3.25;2.25;;;;;22.45;60.59;100578.50;4980213;28;45360;-73
2021/07/25 03:34:12;;;;;;;;;3.00;2.00;;;;;22.42;61.27;100573.44;4980531;28;45229;-73
2021/07/25 03:36:38;;;;;;;;;2.00;2.00;;;;;22.39;60.56;100566.53;4972050;28;45404;-73
2021/07/25 03:39:11;;;;;;;;;6.00;3.00;;;;;22.37;60.46;100573.84;4999036;28;46097;-74
2021/07/25 03:41:36;;;;;;;;;3.00;3.00;;;;;22.36;60.89;100569.44;4980980;28;45652;-74
2021/07/25 03:44:02;;;;;;;;;3.00;3.00;;;;;22.39;60.76;100569.19;4989365;28;45302;-74
2021/07/25 03:46:27;;;;;;;;;3.50;3.00;;;;;22.43;60.35;100578.66;4996587;28;45320;-73
2021/07/25 03:48:52;;;;;;;;;2.25;2.25;;;;;22.45;60.14;100563.28;4996325;28;45281;-73
2021/07/25 03:51:18;;;;;;;;;2.00;2.00;;;;;22.49;60.60;100572.75;4986508;28;45279;-74
2021/07/25 03:53:43;;;;;;;;;3.00;3.00;;;;;22.49;60.68;100564.72;4980422;28;45314;-74
2021/07/25 03:56:08;;;;;;;;;4.50;3.00;;;;;22.48;60.95;100565.72;4970571;28;46103;-75
2021/07/25 03:58:34;;;;;;;;;3.75;3.75;;;;;22.40;60.47;100565.53;4982795;28;46557;-75
2021/07/25 04:01:00;;;;;;;;;3.75;3.00;;;;;22.35;61.61;100559.72;4981006;28;45504;-75
2021/07/25 04:03:25;;;;;;;;;5.00;3.75;;;;;22.32;61.17;100552.78;4983808;28;45274;-75
2021/07/25 04:05:51;;;;;;;;;4.00;3.00;;;;;22.34;60.40;100560.72;4979045;28;46167;-74
2021/07/25 04:08:16;;;;;;;;;3.25;3.00;;;;;22.33;60.47;100562.53;4982626;28;45268;-74
2021/07/25 04:10:43;;;;;;;;;2.00;2.00;;;;;22.36;60.92;100556.06;4983441;28;45222;-74
2021/07/25 04:13:10;;;;;;;;;4.25;4.25;;;;;22.39;60.80;100552.28;4985423;28;45480;-74
2021/07/25 04:15:40;;;;;;;;;3.25;2.00;;;;;22.40;60.99;100559.34;4994217;28;45317;-73
2021/07/25 04:18:06;;;;;;;;;3.75;3.75;;;;;22.41;60.56;100561.88;4983296;28;45214;-73
2021/07/25 04:20:32;;;;;;;;;2.00;2.00;;;;;22.43;60.67;100562.59;4983200;28;45216;-73
2021/07/25 04:22:57;;;;;;;;;4.50;3.00;;;;;22.45;60.33;100555.25;4982934;28;45267;-73
2021/07/25 04:25:23;;;;;;;;;4.25;3.00;;;;;22.43;60.14;100557.22;4983164;28;45309;-73
2021/07/25 04:27:48;;;;;;;;;4.00;2.00;;;;;22.42;60.74;100558.19;4983487;28;46681;-74
2021/07/25 04:30:14;;;;;;;;;4.00;4.00;;;;;22.45;60.21;100557.09;4983053;28;45361;-74
2021/07/25 04:32:40;;;;;;;;;2.50;2.50;;;;;22.43;60.08;100554.56;4983107;28;45259;-74
2021/07/25 04:35:08;;;;;;;;;2.25;2.00;;;;;22.43;60.68;100557.22;4982530;28;46054;-74
2021/07/25 04:37:35;;;;;;;;;3.00;3.00;;;;;22.41;60.36;100556.53;4983889;28;46225;-74
2021/07/25 04:40:01;;;;;;;;;4.00;4.00;;;;;22.36;60.79;100546.22;4982844;28;45244;-74
2021/07/25 04:42:34;;;;;;;;;2.25;2.25;;;;;22.35;60.92;100551.69;4983350;28;45357;-74
2021/07/25 04:45:07;;;;;;;;;4.50;3.00;;;;;22.34;60.78;100555.34;4982536;28;45482;-73
2021/07/25 04:47:40;;;;;;;;;3.75;3.00;;;;;22.32;60.80;100552.78;4982786;28;45481;-72
2021/07/25 04:50:11;;;;;;;;;4.25;3.50;;;;;22.31;60.46;100555.63;4982932;28;45297;-73
2021/07/25 04:52:41;;;;;;;;;1.75;1.75;;;;;22.29;61.11;100563.78;4982902;28;45421;-74
2021/07/25 04:55:09;;;;;;;;;4.00;2.00;;;;;22.25;60.76;100556.97;4994174;28;45396;-74
2021/07/25 04:57:41;;;;;;;;;2.50;2.50;;;;;22.22;61.63;100558.13;4972668;28;47536;-74
2021/07/25 05:00:10;;;;;;;;;5.50;4.00;;;;;22.21;60.96;100563.59;4981504;28;45887;-74
2021/07/25 05:02:38;;;;;;;;;3.50;3.25;;;;;22.20;61.28;100568.09;4983094;28;45337;-74
2021/07/25 05:05:05;;;;;;;;;6.50;3.00;;;;;22.23;61.10;100561.63;4984373;28;46128;-73
2021/07/25 05:07:35;;;;;;;;;3.75;3.75;;;;;22.25;60.76;100565.00;5000419;28;45349;-73
2021/07/25 05:10:00;;;;;;;;;4.50;4.50;;;;;22.25;60.80;100565.88;5002017;28;45266;-73
2021/07/25 05:12:36;;;;;;;;;3.25;2.00;;;;;22.29;61.14;100565.59;5001166;28;45307;-73
2021/07/25 05:15:14;;;;;;;;;2.25;2.25;;;;;22.30;60.85;100570.00;4970115;28;46292;-74
2021/07/25 05:17:55;;;;;;;;;3.50;3.50;;;;;22.28;60.98;100571.94;4978651;28;47569;-74
2021/07/25 05:20:31;;;;;;;;;5.00;4.25;;;;;22.25;61.19;100570.38;4981781;28;45242;-73
2021/07/25 05:23:03;;;;;;;;;4.75;2.75;;;;;22.25;60.69;100571.22;4982618;28;45405;-73
2021/07/25 05:25:30;;;;;;;;;7.00;4.00;;;;;22.25;60.91;100578.41;4982338;28;45390;-76
2021/07/25 05:28:05;;;;;;;;;4.25;2.75;;;;;22.22;61.33;100581.34;4982403;28;46478;-76
2021/07/25 05:30:31;;;;;;;;;3.00;3.00;;;;;22.21;61.09;100580.50;4981781;28;45635;-76
2021/07/25 05:32:57;;;;;;;;;3.50;2.00;;;;;22.22;61.43;100574.19;4982316;28;45391;-74
2021/07/25 05:35:22;;;;;;;;;4.75;3.00;;;;;22.21;61.03;100576.97;4982403;28;45435;-74
2021/07/25 05:37:48;;;;;;;;;3.00;3.00;;;;;22.23;61.04;100575.84;4990559;28;46168;-73
2021/07/25 05:40:15;;;;;;;;;3.00;3.00;;;;;22.24;61.53;100568.69;4982159;28;45381;-74
2021/07/25 05:42:41;;;;;;;;;2.00;2.00;;;;;22.27;60.79;100573.78;4982492;28;45492;-74
2021/07/25 05:45:08;;;;;;;;;3.50;1.50;;;;;22.29;60.74;100573.63;4999916;28;45488;-74
2021/07/25 05:47:34;;;;;;;;;3.00;3.00;;;;;22.31;60.92;100572.53;4990193;28;45603;-74
2021/07/25 05:50:00;;;;;;;;;2.00;2.00;;;;;22.33;60.98;100564.34;4981756;28;45421;-74
2021/07/25 05:52:25;;;;;;;;;6.50;3.25;;;;;22.33;61.23;100553.66;4964440;28;45318;-73
2021/07/25 05:54:50;;;;;;;;;2.00;2.00;;;;;22.34;61.15;100550.00;4980673;28;45160;-76
2021/07/25 05:57:16;;;;;;;;;4.00;4.00;;;;;22.31;61.34;100547.59;4982033;28;45260;-77
2021/07/25 05:59:41;;;;;;;;;3.00;2.50;;;;;22.31;60.78;100553.78;4987845;28;45458;-77
2021/07/25 06:02:06;;;;;;;;;3.00;3.00;;;;;22.31;61.00;100552.94;5001415;28;45177;-76
2021/07/25 06:04:32;;;;;;;;;4.00;4.00;;;;;22.30;61.18;100553.94;4994172;28;45410;-76
2021/07/25 06:06:57;;;;;;;;;5.25;3.75;;;;;22.30;61.32;100553.94;4963742;28;47098;-76
2021/07/25 06:09:24;;;;;;;;;3.25;3.25;;;;;22.31;61.08;100555.63;4981620;28;45293;-76
2021/07/25 06:11:50;;;;;;;;;4.25;3.00;;;;;22.35;61.08;100563.25;4993329;28;45331;-77
2021/07/25 06:14:15;;;;;;;;;1.50;1.50;;;;;22.38;61.06;100562.13;4990972;28;45313;-73
2021/07/25 06:16:40;;;;;;;;;3.50;3.00;;;;;22.40;61.13;100565.53;4981307;28;46399;-73
2021/07/25 06:19:06;;;;;;;;;6.00;4.25;;;;;22.43;60.58;100567.09;4973478;28;45369;-73
2021/07/25 06:21:31;;;;;;;;;3.75;3.75;;;;;22.43;61.24;100567.94;4986037;28;45510;-72
2021/07/25 06:23:57;;;;;;;;;5.75;4.25;;;;;22.42;61.05;100560.06;4981054;28;45434;-73
2021/07/25 06:26:23;;;;;;;;;4.00;4.00;;;;;22.44;60.99;100564.28;4982137;28;46119;-73
2021/07/25 06:28:50;;;;;;;;;2.75;2.75;;;;;22.46;60.79;100562.31;4987443;28;45420;-73
2021/07/25 06:31:16;;;;;;;;;4.25;4.25;;;;;22.45;60.80;100568.66;4983069;28;45232;-77
2021/07/25 06:33:41;;;;;;;;;5.25;4.25;;;;;22.48;60.37;100568.38;4981368;28;45373;-76
2021/07/25 06:36:11;;;;;;;;;7.00;5.75;;;;;22.47;60.80;100566.69;4983994;28;46261;-76
2021/07/25 06:38:40;;;;;;;;;4.25;4.25;;;;;22.51;60.47;100572.63;4996361;28;45326;-81
2021/07/25 06:41:06;;;;;;;;;7.00;4.00;;;;;22.53;60.60;100580.53;4984496;28;45234;-73
2021/07/25 06:43:32;;;;;;;;;5.00;4.75;;;;;22.54;60.74;100571.53;4968186;28;46261;-74
2021/07/25 06:45:58;;;;;;;;;3.75;3.75;;;;;22.51;60.08;100569.09;4987740;28;46470;-74
2021/07/25 06:48:25;;;;;;;;;6.75;4.00;;;;;22.54;60.36;100572.38;4994393;28;45220;-74
2021/07/25 06:50:56;;;;;;;;;5.25;4.25;;;;;22.57;60.52;100571.25;4988643;28;45433;-74
2021/07/25 06:53:23;;;;;;;;;3.75;2.25;;;;;22.58;60.01;100572.94;4982304;28;45357;-74
2021/07/25 06:55:49;;;;;;;;;4.75;4.75;;;;;22.58;60.36;100575.63;4984792;28;46275;-74
2021/07/25 06:58:15;;;;;;;;;3.75;3.50;;;;;22.56;60.37;100577.59;4966266;28;45459;-73
2021/07/25 07:00:41;;;;;;;;;5.50;4.50;;;;;22.55;60.17;100578.56;4994210;28;45246;-74
2021/07/25 07:03:06;;;;;;;;;5.25;5.25;;;;;22.52;60.11;100586.88;4984164;28;45589;-74
2021/07/25 07:05:33;;;;;;;;;4.75;3.50;;;;;22.49;60.55;100577.28;4984483;28;46257;-74
2021/07/25 07:08:04;;;;;;;;;4.50;4.50;;;;;22.51;60.92;100577.13;4985173;28;45341;-74
2021/07/25 07:10:32;;;;;;;;;6.00;6.00;;;;;22.54;60.49;100587.59;4984505;28;45705;-74
2021/07/25 07:13:00;;;;;;;;;6.50;4.00;;;;;22.56;60.33;100583.78;4975991;28;47074;-74
2021/07/25 07:15:29;;;;;;;;;6.00;6.00;;;;;22.58;60.40;100583.66;4988626;28;46604;-74
2021/07/25 07:17:56;;;;;;;;;7.25;5.25;;;;;22.58;60.59;100583.66;4973091;28;45831;-74
2021/07/25 07:20:23;;;;;;;;;7.75;7.75;;;;;22.57;60.55;100581.97;4980446;28;45456;-74
2021/07/25 07:22:52;;;;;;;;;5.25;5.25;;;;;22.56;60.19;100588.28;4992416;28;45329;-73
2021/07/25 07:25:18;;;;;;;;;9.50;4.50;;;;;22.55;60.39;100583.91;4978319;28;48305;-74
2021/07/25 07:27:44;;;;;;;;;6.00;5.00;;;;;22.52;60.21;100589.56;4980395;28;45255;-74
2021/07/25 07:30:09;;;;;;;;;7.00;7.00;;;;;22.54;60.48;100592.94;4989249;28;45969;-76
2021/07/25 07:32:35;;;;;;;;;6.50;4.25;;;;;22.55;60.09;100592.78;4989211;28;45431;-74
2021/07/25 07:35:00;;;;;;;;;7.00;5.25;;;;;22.55;60.12;100590.13;4982244;28;45348;-74
2021/07/25 07:37:25;;;;;;;;;6.00;5.00;;;;;22.58;59.87;100587.19;4980004;28;45322;-74
2021/07/25 07:39:51;;;;;;;;;10.00;7.50;;;;;22.62;60.22;100590.44;4979875;28;45400;-73
2021/07/25 07:42:16;;;;;;;;;6.75;6.75;;;;;22.66;59.92;100591.03;4980568;28;46137;-74
2021/07/25 07:44:42;;;;;;;;;5.75;5.75;;;;;22.71;59.89;100588.81;4980699;28;45266;-74
2021/07/25 07:47:08;;;;;;;;;7.00;7.00;;;;;22.73;59.51;100586.84;4962469;28;45192;-74
2021/07/25 07:49:33;;;;;;;;;6.50;6.00;;;;;22.73;59.78;100584.19;4979976;28;45446;-73
2021/07/25 07:51:58;;;;;;;;;10.25;6.25;;;;;22.74;59.58;100593.91;4985712;28;45305;-74
2021/07/25 07:54:24;;;;;;;;;7.00;7.00;;;;;22.74;60.34;100585.03;4975146;28;45933;-73
2021/07/25 07:56:49;;;;;;;;;7.50;6.00;;;;;22.72;59.81;100578.97;4986853;28;45339;-74
2021/07/25 07:59:15;;;;;;;;;8.00;8.00;;;;;22.72;60.15;100589.69;4979586;28;45309;-73
2021/07/25 08:01:40;;;;;;;;;7.00;6.25;;;;;22.70;60.07;100587.97;4962597;28;47023;-74
2021/07/25 08:04:05;;;;;;;;;7.50;6.75;;;;;22.70;59.97;100587.97;4986688;28;45445;-73
2021/07/25 08:06:31;;;;;;;;;7.00;7.00;;;;;22.70;59.52;100582.59;4975447;28;45390;-73
2021/07/25 08:08:56;;;;;;;;;7.25;7.00;;;;;22.70;59.71;100585.28;4979179;28;45761;-74
2021/07/25 08:11:21;;;;;;;;;8.25;6.50;;;;;22.73;60.00;100591.34;4988484;28;45539;-74
2021/07/25 08:13:47;;;;;;;;;6.75;5.75;;;;;22.73;59.79;100592.22;4986239;28;45179;-74
2021/07/25 08:16:12;;;;;;;;;6.50;5.00;;;;;22.74;59.83;100593.91;4979811;28;45292;-74
2021/07/25 08:18:38;;;;;;;;;10.00;8.00;;;;;22.73;60.00;100592.22;4979819;28;45520;-74
2021/07/25 08:21:05;;;;;;;;;8.25;8.25;;;;;22.72;59.39;100595.84;4979317;28;45231;-72
2021/07/25 08:23:31;;;;;;;;;6.75;6.75;;;;;22.70;60.00;100593.31;4983110;28;46622;-74
2021/07/25 08:25:56;;;;;;;;;9.75;8.75;;;;;22.68;60.11;100584.56;4986734;28;47286;-73
2021/07/25 08:28:22;;;;;;;;;7.75;7.25;;;;;22.65;59.64;100587.50;4982786;28;45401;-73
2021/07/25 08:30:47;;;;;;;;;7.00;7.00;;;;;22.62;60.36;100587.75;4981898;28;45324;-74
2021/07/25 08:33:13;;;;;;;;;6.50;6.50;;;;;22.62;59.82;100592.28;4990450;28;46343;-73
2021/07/25 08:35:38;;;;;;;;;9.50;6.50;;;;;22.64;59.61;100584.97;4979260;28;45410;-73
2021/07/25 08:38:04;;;;;;;;;7.00;5.50;;;;;22.67;59.55;100585.50;4979925;28;45331;-73
2021/07/25 08:40:31;;;;;;;;;10.25;8.00;;;;;22.70;59.45;100579.94;4986511;28;45239;-73
2021/07/25 08:43:09;;;;;;;;;6.00;6.00;;;;;22.74;59.89;100590.38;4979480;28;45327;-73
2021/07/25 08:45:37;;;;;;;;;11.25;8.50;;;;;22.76;59.42;100586.59;4978781;28;45244;-73
2021/07/25 08:48:11;;;;;;;;;8.75;8.00;;;;;22.81;59.71;100578.16;4982248;28;45492;-73
2021/07/25 08:51:00;;;;;;;;;14.00;9.25;;;;;22.83;59.30;100586.88;5001943;28;45384;-73
2021/07/25 08:53:27;;;;;;;;;8.50;8.50;;;;;22.83;59.93;100578.84;4974386;28;46544;-74
2021/07/25 08:55:52;;;;;;;;;5.75;4.75;;;;;22.82;60.00;100583.34;4983035;28;45279;-73
2021/07/25 08:58:22;;;;;;;;;8.25;8.00;;;;;22.82;60.19;100587.84;4982488;28;45436;-73
2021/07/25 09:00:50;;;;;;;;;10.25;9.00;;;;;22.84;59.63;100591.25;4982583;28;45298;-73
2021/07/25 09:03:17;;;;;;;;;8.00;8.00;;;;;22.85;59.69;100589.41;4982717;28;45325;-73
2021/07/25 09:05:42;;;;;;;;;7.50;7.00;;;;;22.86;60.34;100594.66;4982508;28;46413;-73
2021/07/25 09:08:09;;;;;;;;;11.50;8.25;;;;;22.82;59.53;100594.06;4982757;28;45438;-73
2021/07/25 09:10:34;;;;;;;;;8.75;8.50;;;;;22.80;59.81;100595.19;4985765;28;45348;-73
2021/07/25 09:13:00;;;;;;;;;10.50;7.50;;;;;22.79;60.07;100596.19;4996485;28;46073;-73
2021/07/25 09:15:30;;;;;;;;;10.50;9.00;;;;;22.75;59.96;100594.75;5001930;28;45392;-73
2021/07/25 09:17:57;;;;;;;;;7.50;7.25;;;;;22.75;60.72;100594.75;4996088;28;46712;-73
2021/07/25 09:20:27;;;;;;;;;8.50;8.50;;;;;22.73;61.11;100597.56;4987160;28;45495;-73
2021/07/25 09:22:57;;;;;;;;;7.50;7.50;;;;;22.74;61.59;100599.28;4999367;28;46336;-73
2021/07/25 09:25:22;;;;;;;;;6.25;6.25;;;;;22.73;61.95;100594.03;4998805;28;45444;-73
2021/07/25 09:28:07;;;;;;;;;8.00;8.00;;;;;22.70;61.68;100598.69;4982520;28;45265;-72
2021/07/25 09:30:33;;;;;;;;;10.00;8.00;;;;;22.68;62.41;100595.25;4981827;28;45253;-72
2021/07/25 09:32:59;;;;;;;;;7.25;7.25;;;;;22.71;63.33;100594.19;4984724;28;46531;-72
2021/07/25 09:35:30;;;;;;;;;7.50;7.50;;;;;22.69;62.48;100588.94;4998176;28;45520;-72
2021/07/25 09:38:11;;;;;;;;;10.00;9.50;;;;;22.69;62.81;100586.25;4988925;28;45300;-72
2021/07/25 09:40:38;;;;;;;;;9.25;8.00;;;;;22.70;62.79;100587.13;4973674;28;46272;-72
2021/07/25 09:43:07;;;;;;;;;16.50;12.50;;;;;22.70;64.00;100587.97;4982295;28;45425;-73
2021/07/25 09:45:32;;;;;;;;;7.50;7.50;;;;;22.65;64.31;100584.81;4964298;28;45264;-72
2021/07/25 09:48:09;;;;;;;;;7.50;7.50;;;;;22.61;63.64;100583.38;4992590;28;45473;-72
2021/07/25 09:50:35;;;;;;;;;12.50;10.50;;;;;22.57;64.76;100579.28;4988556;28;45654;-72
2021/07/25 09:53:01;;;;;;;;;8.50;8.50;;;;;22.53;64.25;100588.56;4981687;28;45303;-72
2021/07/25 09:55:30;;;;;;;;;10.25;9.75;;;;;22.48;64.37;100589.81;4993597;28;46714;-73
2021/07/25 09:57:55;;;;;;;;;7.25;7.25;;;;;22.45;63.72;100590.06;4993386;28;45234;-72
2021/07/25 10:00:21;;;;;;;;;9.75;9.75;;;;;22.47;63.84;100596.13;4994689;28;45522;-73
2021/07/25 10:02:47;;;;;;;;;9.00;8.75;;;;;22.48;64.18;100589.81;4982961;28;46370;-73
2021/07/25 10:05:19;;;;;;;;;8.75;7.25;;;;;22.50;63.79;100587.00;4982632;28;45275;-72
2021/07/25 10:07:48;;;;;;;;;11.50;10.25;;;;;22.54;64.09;100587.59;5001398;28;45352;-73
2021/07/25 10:10:17;;;;;;;;;9.75;8.25;;;;;22.57;63.77;100592.69;5000306;28;45222;-72
2021/07/25 10:12:44;;;;;;;;;8.25;8.25;;;;;22.62;63.18;100585.06;5001056;28;46071;-73
2021/07/25 10:15:12;;;;;;;;;9.50;7.75;;;;;22.67;63.80;100584.66;4990806;28;45508;-73
2021/07/25 10:17:40;;;;;;;;;8.00;7.25;;;;;22.72;63.39;100589.69;4984588;28;45376;-72
2021/07/25 10:20:11;;;;;;;;;7.75;7.00;;;;;22.75;63.36;100582.19;4978808;28;46091;-73
2021/07/25 10:22:39;;;;;;;;;7.50;6.75;;;;;22.75;63.44;100576.84;4986984;28;45410;-73
2021/07/25 10:25:08;;;;;;;;;7.25;7.25;;;;;22.74;63.47;100577.00;4963952;28;45686;-73
2021/07/25 10:27:35;;;;;;;;;7.50;6.25;;;;;22.72;63.21;100569.06;4981442;28;45315;-73
2021/07/25 10:30:09;;;;;;;;;8.00;7.00;;;;;22.75;65.00;100568.81;4989334;28;47484;-73
2021/07/25 10:32:37;;;;;;;;;6.25;6.25;;;;;22.77;64.94;100566.84;5000493;28;45355;-73
2021/07/25 10:35:06;;;;;;;;;8.00;6.00;;;;;22.80;63.56;100560.38;4997188;28;45506;-72
2021/07/25 10:37:36;;;;;;;;;8.00;8.00;;;;;22.84;63.63;100566.31;4982815;28;45320;-73
2021/07/25 10:40:03;;;;;;;;;8.00;6.75;;;;;22.86;64.17;100564.34;4996339;28;47315;-73
2021/07/25 10:42:32;;;;;;;;;9.00;7.25;;;;;22.87;63.52;100566.00;4981026;28;46951;-73
2021/07/25 10:44:58;;;;;;;;;9.00;7.50;;;;;22.86;64.02;100554.47;4980959;28;45537;-73
2021/07/25 10:47:27;;;;;;;;;8.25;7.75;;;;;22.87;63.62;100561.50;4981085;28;45371;-73
2021/07/25 10:50:14;;;;;;;;;8.00;8.00;;;;;22.87;63.74;100550.78;4980913;28;45623;-73
2021/07/25 10:52:55;;;;;;;;;10.00;9.00;;;;;22.88;63.80;100547.16;4981962;28;45534;-73
2021/07/25 10:55:37;;;;;;;;;11.75;10.00;;;;;22.89;63.81;100548.00;4992461;28;45223;-73
2021/07/25 10:58:05;;;;;;;;;8.25;8.25;;;;;22.89;63.09;100540.78;4984629;28;45360;-73
2021/07/25 11:00:45;;;;;;;;;10.00;9.00;;;;;22.92;63.44;100537.84;4983357;28;45321;-73
2021/07/25 11:03:35;;;;;;;;;10.00;10.00;;;;;22.99;63.12;100543.50;4987864;28;45390;-73
2021/07/25 11:06:01;;;;;;;;;9.25;8.75;;;;;23.05;63.25;100544.78;4982442;28;45526;-73
2021/07/25 11:08:41;;;;;;;;;10.25;10.25;;;;;23.11;63.36;100541.53;4997581;28;45186;-72
2021/07/25 11:11:24;;;;;;;;;13.00;12.00;;;;;23.16;63.20;100541.97;4968650;28;46407;-73
2021/07/25 11:13:51;;;;;;;;;8.75;7.75;;;;;23.21;63.16;100544.22;4980405;28;45329;-72
2021/07/25 11:16:32;;;;;;;;;8.75;8.75;;;;;23.29;62.66;100542.69;4980466;28;45473;-73
2021/07/25 11:19:06;;;;;;;;;10.50;9.75;;;;;23.35;62.35;100534.94;4981066;28;45422;-73
2021/07/25 11:21:43;;;;;;;;;10.25;10.00;;;;;23.37;61.86;100542.84;4962941;28;45963;-73
2021/07/25 11:24:17;;;;;;;;;9.75;8.50;;;;;23.38;62.33;100531.97;4989546;28;45475;-73
2021/07/25 11:26:43;;;;;;;;;14.00;12.25;;;;;23.43;63.67;100528.03;4986680;28;45538;-73
2021/07/25 11:29:10;;;;;;;;;12.00;11.00;;;;;23.43;61.95;100528.03;4980597;28;45306;-72